createdAt,value
2019-01-26T00:00:02.670Z,99.13
2019-01-26T00:01:02.646Z,98.75
2019-01-26T00:02:02.624Z,96.39
2019-01-26T00:03:02.605Z,96.58
2019-01-26T00:04:02.585Z,97.34
2019-01-26T00:05:02.590Z,97.15
2019-01-26T00:06:02.290Z,95.07
2019-01-26T00:07:02.530Z,94.79
2019-01-26T00:08:02.500Z,94.98
2019-01-26T00:09:02.474Z,94.7
2019-01-26T00:10:02.539Z,94.32
2019-01-26T00:11:02.586Z,95.17
2019-01-26T00:12:02.418Z,95.07
2019-01-26T00:13:02.438Z,95.07
2019-01-26T00:14:02.370Z,94.03
2019-01-26T00:15:02.352Z,93.84
2019-01-26T00:16:02.331Z,93.09
2019-01-26T00:17:02.309Z,93.37
2019-01-26T00:18:02.291Z,92.52
2019-01-26T00:19:02.271Z,93.66
2019-01-26T00:20:02.246Z,93.56
2019-01-26T00:21:14.963Z,93.09
2019-01-26T00:22:02.209Z,92.71
2019-01-26T00:23:02.186Z,92.9
2019-01-26T00:24:02.165Z,93.18
2019-01-26T00:25:02.152Z,92.61
2019-01-26T00:26:02.149Z,92.14
2019-01-26T00:27:01.853Z,91.39
2019-01-26T00:28:02.081Z,90.64
2019-01-26T00:29:02.065Z,91.2
2019-01-26T00:30:02.037Z,91.58
2019-01-26T00:31:01.770Z,91.39
2019-01-26T00:32:01.996Z,91.01
2019-01-26T00:33:01.986Z,90.73
2019-01-26T00:34:01.959Z,90.54
2019-01-26T00:35:01.937Z,91.11
2019-01-26T00:36:01.915Z,90.73
2019-01-26T00:37:01.891Z,90.64
2019-01-26T00:38:01.621Z,90.64
2019-01-26T00:39:01.850Z,92.05
2019-01-26T00:40:01.835Z,91.49
2019-01-26T00:41:01.808Z,90.26
2019-01-26T00:42:01.787Z,90.16
2019-01-26T00:43:01.766Z,89.97
2019-01-26T00:44:01.742Z,89.88
2019-01-26T00:45:01.729Z,90.16
2019-01-26T00:46:01.703Z,90.45
2019-01-26T00:47:01.685Z,91.49
2019-01-26T00:48:01.659Z,91.67
2019-01-26T00:49:01.638Z,91.39
2019-01-26T00:50:01.616Z,91.39
2019-01-26T00:51:01.597Z,92.05
2019-01-26T00:52:01.577Z,91.67
2019-01-26T00:53:01.554Z,91.2
2019-01-26T00:54:01.534Z,92.05
2019-01-26T00:55:01.517Z,92.05
2019-01-26T00:56:01.490Z,92.61
2019-01-26T00:57:01.479Z,94.03
2019-01-26T00:58:01.206Z,93.56
2019-01-26T00:59:01.606Z,92.99
2019-01-26T01:00:01.409Z,93.09
2019-01-26T01:01:01.389Z,92.61
2019-01-26T01:02:01.368Z,93.66
2019-01-26T01:03:01.356Z,93.47
2019-01-26T01:04:01.331Z,93.09
2019-01-26T01:05:01.306Z,92.71
2019-01-26T01:06:01.283Z,92.61
2019-01-26T01:07:01.263Z,93.09
2019-01-26T01:08:01.238Z,92.52
2019-01-26T01:09:01.222Z,91.86
2019-01-26T01:10:01.201Z,91.11
2019-01-26T01:11:01.183Z,89.97
2019-01-26T01:12:01.158Z,89.4
2019-01-26T01:13:01.137Z,89.69
2019-01-26T01:14:01.115Z,88.93
2019-01-26T01:15:01.094Z,88.84
2019-01-26T01:16:01.077Z,89.12
2019-01-26T01:17:01.056Z,88.18
2019-01-26T01:18:00.787Z,86.95
2019-01-26T01:19:00.846Z,85.25
2019-01-26T01:20:00.995Z,84.5
2019-01-26T01:21:01.877Z,83.36
2019-01-26T01:22:00.950Z,83.46
2019-01-26T01:23:00.679Z,82.7
2019-01-26T01:24:00.911Z,81.95
2019-01-26T01:25:00.935Z,82.32
2019-01-26T01:26:00.867Z,81.2
2019-01-26T01:27:00.851Z,81.1
2019-01-26T01:28:00.846Z,81.67
2019-01-26T01:29:00.805Z,81.38
2019-01-26T01:30:00.787Z,80.72
2019-01-26T01:31:00.762Z,80.63
2019-01-26T01:32:00.742Z,81.01
2019-01-26T01:33:00.468Z,81.01
2019-01-26T01:34:00.698Z,80.53
2019-01-26T01:35:00.677Z,80.53
2019-01-26T01:36:00.654Z,80.72
2019-01-26T01:37:00.637Z,80.82
2019-01-26T01:38:00.616Z,81.67
2019-01-26T01:39:00.351Z,81.85
2019-01-26T01:40:00.571Z,82.04
2019-01-26T01:41:00.550Z,82.23
2019-01-26T01:42:00.532Z,82.7
2019-01-26T01:43:00.508Z,82.8
2019-01-26T01:44:00.488Z,83.17
2019-01-26T01:45:00.471Z,84.22
2019-01-26T01:46:00.449Z,85.72
2019-01-26T01:47:00.424Z,87.14
2019-01-26T01:48:00.156Z,88.09
2019-01-26T01:49:00.387Z,89.22
2019-01-26T01:50:00.367Z,89.12
2019-01-26T01:51:00.343Z,90.45
2019-01-26T01:52:00.321Z,89.97
2019-01-26T01:53:00.303Z,90.07
2019-01-26T01:54:00.285Z,89.97
2019-01-26T01:55:00.262Z,92.33
2019-01-26T01:56:00.242Z,92.99
2019-01-26T01:57:00.222Z,92.99
2019-01-26T01:58:00.198Z,93.66
2019-01-26T01:59:00.184Z,96.49
2019-01-26T02:00:00.162Z,96.58
2019-01-26T02:01:00.137Z,97.24
2019-01-26T02:02:00.111Z,97.62
2019-01-26T02:03:00.097Z,97.91
2019-01-26T02:04:00.075Z,97.43
2019-01-26T02:05:00.052Z,97.91
2019-01-26T02:06:00.031Z,99.04
2019-01-26T02:07:00.010Z,99.32
2019-01-26T02:07:59.741Z,99.99
2019-01-26T02:08:59.968Z,99.79
2019-01-26T02:09:59.948Z,99.13
2019-01-26T02:10:59.926Z,98.94
2019-01-26T02:11:59.911Z,99.88
2019-01-26T02:12:59.885Z,99.99
2019-01-26T02:13:59.865Z,98.94
2019-01-26T02:14:59.845Z,96.96
2019-01-26T02:15:59.826Z,95.45
2019-01-26T02:16:59.802Z,95.17
2019-01-26T02:17:59.782Z,94.22
2019-01-26T02:18:59.765Z,93.47
2019-01-26T02:19:59.746Z,92.9
2019-01-26T02:20:59.717Z,92.9
2019-01-26T02:21:59.699Z,92.61
2019-01-26T02:22:59.679Z,93.18
2019-01-26T02:23:59.655Z,92.71
2019-01-26T02:24:59.635Z,92.9
2019-01-26T02:25:59.732Z,94.22
2019-01-26T02:26:59.595Z,94.98
2019-01-26T02:27:59.573Z,94.89
2019-01-26T02:28:59.553Z,95.45
2019-01-26T02:29:59.541Z,95.45
2019-01-26T02:30:59.512Z,95.54
2019-01-26T02:31:59.494Z,96.3
2019-01-26T02:32:59.471Z,96.58
2019-01-26T02:33:59.448Z,96.39
2019-01-26T02:34:59.427Z,96.58
2019-01-26T02:35:59.407Z,93.18
2019-01-26T02:36:59.393Z,90.92
2019-01-26T02:37:59.372Z,87.9
2019-01-26T02:38:59.354Z,85.82
2019-01-26T02:39:59.325Z,81.85
2019-01-26T02:40:59.306Z,78.83
2019-01-26T02:41:59.284Z,77.51
2019-01-26T02:42:59.263Z,75.53
2019-01-26T02:43:59.244Z,75.62
2019-01-26T02:44:59.222Z,75.81
2019-01-26T02:45:59.203Z,74.77
2019-01-26T02:47:00.644Z,74.3
2019-01-26T02:47:59.157Z,74.49
2019-01-26T02:48:59.146Z,74.11
2019-01-26T02:49:59.128Z,74.4
2019-01-26T02:50:59.093Z,73.83
2019-01-26T02:51:59.074Z,73.45
2019-01-26T02:52:59.066Z,74.3
2019-01-26T02:53:59.032Z,74.3
2019-01-26T02:54:59.016Z,75.34
2019-01-26T02:55:58.993Z,76
2019-01-26T02:56:58.974Z,76.38
2019-01-26T02:57:58.948Z,75.43
2019-01-26T02:58:58.684Z,74.11
2019-01-26T02:59:58.907Z,73.17
2019-01-26T03:00:58.636Z,72.79
2019-01-26T03:01:58.870Z,71.66
2019-01-26T03:02:58.848Z,71.19
2019-01-26T03:03:58.822Z,71.37
2019-01-26T03:04:58.800Z,71.47
2019-01-26T03:05:58.786Z,71.28
2019-01-26T03:06:58.763Z,70.62
2019-01-26T03:07:58.741Z,69.77
2019-01-26T03:08:58.723Z,70.43
2019-01-26T03:09:58.700Z,70.53
2019-01-26T03:10:58.678Z,69.49
2019-01-26T03:11:58.661Z,69.39
2019-01-26T03:12:58.639Z,68.54
2019-01-26T03:13:58.616Z,69.86
2019-01-26T03:14:58.600Z,69.77
2019-01-26T03:15:58.663Z,70.62
2019-01-26T03:17:05.496Z,71.09
2019-01-26T03:17:58.289Z,71.19
2019-01-26T03:18:58.520Z,71.75
2019-01-26T03:19:58.492Z,72.6
2019-01-26T03:20:58.226Z,72.22
2019-01-26T03:21:58.452Z,72.22
2019-01-26T03:22:58.432Z,73.55
2019-01-26T03:23:58.413Z,73.64
2019-01-26T03:24:58.389Z,73.26
2019-01-26T03:25:58.118Z,72.79
2019-01-26T03:26:58.345Z,71.84
2019-01-26T03:27:58.340Z,71.19
2019-01-26T03:28:58.302Z,70.34
2019-01-26T03:29:58.034Z,69.86
2019-01-26T03:30:58.271Z,69.67
2019-01-26T03:31:58.015Z,69.39
2019-01-26T03:32:58.227Z,68.54
2019-01-26T03:33:57.961Z,67.79
2019-01-26T03:34:58.186Z,67.22
2019-01-26T03:35:57.910Z,67.32
2019-01-26T03:36:58.154Z,67.13
2019-01-26T03:37:58.119Z,67.03
2019-01-26T03:38:58.099Z,66.65
2019-01-26T03:39:58.076Z,65.9
2019-01-26T03:40:57.808Z,65.42
2019-01-26T03:41:58.035Z,65.8
2019-01-26T03:42:58.019Z,65.33
2019-01-26T03:43:57.997Z,64.01
2019-01-26T03:44:57.978Z,62.88
2019-01-26T03:45:57.967Z,62.21
2019-01-26T03:46:57.936Z,61.84
2019-01-26T03:47:57.912Z,60.61
2019-01-26T03:48:57.892Z,59.86
2019-01-26T03:49:57.883Z,59
2019-01-26T03:50:57.848Z,58.34
2019-01-26T03:51:57.829Z,57.78
2019-01-26T03:52:57.808Z,57.21
2019-01-26T03:53:57.788Z,56.46
2019-01-26T03:54:57.770Z,55.89
2019-01-26T03:55:57.743Z,54.94
2019-01-26T03:56:57.743Z,53.91
2019-01-26T03:57:57.705Z,52.96
2019-01-26T03:58:57.689Z,51.45
2019-01-26T03:59:57.665Z,50.7
2019-01-26T04:00:57.646Z,49.85
2019-01-26T04:01:57.620Z,49.28
2019-01-26T04:02:57.600Z,48.9
2019-01-26T04:03:57.575Z,48.43
2019-01-26T04:04:57.556Z,47.39
2019-01-26T04:05:57.538Z,47.2
2019-01-26T04:06:57.512Z,46.45
2019-01-26T04:07:57.493Z,45.98
2019-01-26T04:08:57.473Z,45.41
2019-01-26T04:09:57.450Z,45.32
2019-01-26T04:10:57.430Z,44.84
2019-01-26T04:11:57.410Z,44.46
2019-01-26T04:12:57.388Z,44.56
2019-01-26T04:13:57.379Z,44.65
2019-01-26T04:14:57.349Z,44.84
2019-01-26T04:15:57.335Z,45.22
2019-01-26T04:16:57.064Z,45.5
2019-01-26T04:17:57.284Z,45.5
2019-01-26T04:18:57.268Z,45.69
2019-01-26T04:19:57.250Z,45.79
2019-01-26T04:20:57.227Z,45.79
2019-01-26T04:21:57.208Z,45.69
2019-01-26T04:22:56.943Z,45.32
2019-01-26T04:23:57.160Z,45.41
2019-01-26T04:24:57.151Z,45.32
2019-01-26T04:25:57.120Z,46.45
2019-01-26T04:26:57.099Z,47.2
2019-01-26T04:27:57.083Z,47.39
2019-01-26T04:28:57.063Z,47.11
2019-01-26T04:29:57.037Z,46.55
2019-01-26T04:30:57.019Z,47.39
2019-01-26T04:31:57.026Z,47.3
2019-01-26T04:32:56.975Z,47.2
2019-01-26T04:33:56.957Z,46.64
2019-01-26T04:34:56.934Z,46.55
2019-01-26T04:35:56.910Z,46.83
2019-01-26T04:36:56.899Z,46.92
2019-01-26T04:37:56.871Z,47.58
2019-01-26T04:38:56.857Z,48.34
2019-01-26T04:39:56.589Z,48.43
2019-01-26T04:40:56.812Z,49.19
2019-01-26T04:41:56.791Z,49.57
2019-01-26T04:42:56.782Z,49.76
2019-01-26T04:43:56.743Z,50.04
2019-01-26T04:44:56.727Z,50.42
2019-01-26T04:45:56.458Z,50.23
2019-01-26T04:46:56.707Z,50.51
2019-01-26T04:47:56.454Z,51.07
2019-01-26T04:48:56.650Z,51.45
2019-01-26T04:49:56.623Z,52.02
2019-01-26T04:50:56.607Z,52.11
2019-01-26T04:51:56.585Z,52.11
2019-01-26T04:52:56.562Z,52.87
2019-01-26T04:53:56.541Z,52.96
2019-01-26T04:54:56.520Z,53.06
2019-01-26T04:55:56.501Z,52.87
2019-01-26T04:56:56.480Z,54.1
2019-01-26T04:57:56.459Z,53.91
2019-01-26T04:58:56.444Z,54.19
2019-01-26T04:59:56.424Z,54.47
2019-01-26T05:00:56.402Z,54.75
2019-01-26T05:01:56.378Z,54.66
2019-01-26T05:02:56.107Z,54.85
2019-01-26T05:03:56.338Z,54.66
2019-01-26T05:04:56.311Z,54.47
2019-01-26T05:05:56.044Z,54.57
2019-01-26T05:06:56.278Z,54.66
2019-01-26T05:07:56.257Z,54.57
2019-01-26T05:08:56.232Z,54.66
2019-01-26T05:09:56.213Z,55.42
2019-01-26T05:10:56.189Z,55.42
2019-01-26T05:11:56.174Z,55.51
2019-01-26T05:12:56.148Z,55.42
2019-01-26T05:13:56.132Z,55.42
2019-01-26T05:14:56.110Z,55.61
2019-01-26T05:15:56.087Z,55.51
2019-01-26T05:16:56.071Z,55.23
2019-01-26T05:17:55.801Z,55.13
2019-01-26T05:18:56.028Z,55.04
2019-01-26T05:19:56.012Z,55.8
2019-01-26T05:20:55.737Z,55.32
2019-01-26T05:21:55.965Z,55.51
2019-01-26T05:22:55.950Z,55.89
2019-01-26T05:23:55.927Z,56.55
2019-01-26T05:24:55.904Z,56.74
2019-01-26T05:25:55.636Z,56.46
2019-01-26T05:26:55.865Z,56.65
2019-01-26T05:27:55.840Z,56.74
2019-01-26T05:28:55.820Z,56.46
2019-01-26T05:29:55.799Z,56.74
2019-01-26T05:30:55.530Z,56.55
2019-01-26T05:31:55.767Z,56.74
2019-01-26T05:32:55.739Z,56.93
2019-01-26T05:33:55.718Z,57.12
2019-01-26T05:34:55.698Z,57.31
2019-01-26T05:35:55.681Z,57.03
2019-01-26T05:36:55.662Z,57.21
2019-01-26T05:37:55.643Z,57.4
2019-01-26T05:38:55.621Z,57.31
2019-01-26T05:39:55.598Z,57.21
2019-01-26T05:40:55.577Z,57.87
2019-01-26T05:41:55.560Z,57.97
2019-01-26T05:42:55.540Z,57.97
2019-01-26T05:43:55.514Z,58.06
2019-01-26T05:44:55.495Z,58.25
2019-01-26T05:45:55.476Z,58.06
2019-01-26T05:46:55.205Z,57.97
2019-01-26T05:47:55.215Z,57.87
2019-01-26T05:48:55.413Z,57.68
2019-01-26T05:49:55.407Z,57.87
2019-01-26T05:50:55.371Z,58.15
2019-01-26T05:51:55.350Z,58.53
2019-01-26T05:52:55.333Z,58.44
2019-01-26T05:53:55.063Z,59.19
2019-01-26T05:54:55.291Z,59.19
2019-01-26T05:55:55.273Z,59.48
2019-01-26T05:56:55.254Z,60.14
2019-01-26T05:57:55.232Z,60.33
2019-01-26T05:58:55.208Z,60.71
2019-01-26T05:59:55.193Z,61.46
2019-01-26T06:00:54.921Z,61.18
2019-01-26T06:01:55.161Z,61.18
2019-01-26T06:02:55.131Z,61.18
2019-01-26T06:03:55.109Z,60.89
2019-01-26T06:04:55.090Z,60.99
2019-01-26T06:05:55.072Z,61.55
2019-01-26T06:06:55.047Z,61.18
2019-01-26T06:07:55.028Z,61.65
2019-01-26T06:08:55.010Z,61.36
2019-01-26T06:09:54.987Z,61.08
2019-01-26T06:10:54.964Z,61.65
2019-01-26T06:11:54.948Z,61.84
2019-01-26T06:12:54.927Z,61.84
2019-01-26T06:13:54.910Z,61.55
2019-01-26T06:14:54.888Z,60.99
2019-01-26T06:15:54.865Z,61.46
2019-01-26T06:16:54.842Z,61.36
2019-01-26T06:17:57.735Z,60.71
2019-01-26T06:18:54.802Z,60.74
2019-01-26T06:19:54.783Z,61.27
2019-01-26T06:20:54.765Z,61.27
2019-01-26T06:21:54.746Z,61.18
2019-01-26T06:22:54.728Z,60.8
2019-01-26T06:23:54.703Z,60.61
2019-01-26T06:24:54.686Z,60.52
2019-01-26T06:25:54.663Z,60.93
2019-01-26T06:26:54.640Z,60.99
2019-01-26T06:27:54.375Z,60.55
2019-01-26T06:28:54.599Z,60.8
2019-01-26T06:29:54.337Z,61.02
2019-01-26T06:30:54.564Z,61.49
2019-01-26T06:31:54.540Z,61.3
2019-01-26T06:32:54.522Z,61.02
2019-01-26T06:33:54.257Z,61.11
2019-01-26T06:34:54.482Z,61.02
2019-01-26T06:35:54.213Z,61.55
2019-01-26T06:36:54.595Z,61.77
2019-01-26T06:37:54.424Z,62.06
2019-01-26T06:38:55.690Z,61.77
2019-01-26T06:39:54.379Z,61.96
2019-01-26T06:40:54.360Z,62.25
2019-01-26T06:41:54.340Z,61.3
2019-01-26T06:42:54.320Z,61.4
2019-01-26T06:43:54.341Z,61.3
2019-01-26T06:44:54.278Z,60.83
2019-01-26T06:45:54.257Z,61.02
2019-01-26T06:46:54.237Z,60.93
2019-01-26T06:47:54.222Z,61.58
2019-01-26T06:48:54.200Z,61.02
2019-01-26T06:49:54.178Z,61.11
2019-01-26T06:50:54.157Z,61.3
2019-01-26T06:51:53.893Z,61.3
2019-01-26T06:52:54.127Z,61.3
2019-01-26T06:53:53.851Z,61.4
2019-01-26T06:56:58.525Z,61.02
2019-01-26T06:57:58.750Z,61.93
2019-01-26T06:58:58.734Z,61.02
2019-01-26T06:59:58.711Z,61.68
2019-01-26T07:00:58.741Z,60.83
2019-01-26T07:01:58.720Z,60.17
2019-01-26T07:02:58.454Z,60.17
2019-01-26T07:03:58.681Z,59.6
2019-01-26T07:04:58.665Z,59.79
2019-01-26T07:05:58.644Z,60.36
2019-01-26T07:06:58.622Z,60.36
2019-01-26T07:07:58.601Z,60.27
2019-01-26T07:08:58.581Z,59.98
2019-01-26T07:09:58.564Z,60.55
2019-01-26T07:10:58.543Z,60.17
2019-01-26T07:11:58.528Z,59.89
2019-01-26T07:12:58.509Z,59.7
2019-01-26T07:13:58.235Z,59.7
2019-01-26T07:14:58.462Z,59.7
2019-01-26T07:15:58.440Z,60.17
2019-01-26T07:16:58.428Z,60.36
2019-01-26T07:17:58.404Z,60.93
2019-01-26T07:18:58.383Z,60.83
2019-01-26T07:19:58.363Z,60.74
2019-01-26T07:20:58.094Z,61.3
2019-01-26T07:21:58.328Z,61.3
2019-01-26T07:22:58.306Z,61.21
2019-01-26T07:23:58.281Z,61.87
2019-01-26T07:24:58.263Z,62.72
2019-01-26T07:25:58.240Z,62.62
2019-01-26T07:26:58.226Z,62.53
2019-01-26T07:27:58.205Z,63.29
2019-01-26T07:28:58.181Z,64.42
2019-01-26T07:29:58.163Z,65.55
2019-01-26T07:30:58.146Z,66.41
2019-01-26T07:31:58.129Z,66.5
2019-01-26T07:32:58.104Z,67.44
2019-01-26T07:33:58.082Z,67.16
2019-01-26T07:34:58.062Z,67.44
2019-01-26T07:35:58.044Z,67.91
2019-01-26T07:36:58.022Z,68.39
2019-01-26T07:37:58.005Z,69.43
2019-01-26T07:38:57.985Z,69.05
2019-01-26T07:39:57.962Z,70.09
2019-01-26T07:40:57.696Z,71.41
2019-01-26T07:41:57.922Z,72.55
2019-01-26T07:42:57.905Z,72.64
2019-01-26T07:43:57.889Z,72.83
2019-01-26T07:44:57.863Z,72.17
2019-01-26T07:45:57.846Z,71.98
2019-01-26T07:46:57.828Z,71.79
2019-01-26T07:47:57.807Z,71.79
2019-01-26T07:48:57.787Z,71.6
2019-01-26T07:49:57.769Z,72.36
2019-01-26T07:50:57.748Z,73.3
2019-01-26T07:51:57.725Z,73.77
2019-01-26T07:52:57.709Z,73.77
2019-01-26T07:53:57.442Z,73.96
2019-01-26T07:54:57.665Z,74.43
2019-01-26T07:55:57.650Z,74.24
2019-01-26T07:56:57.628Z,74.24
2019-01-26T07:57:57.604Z,74.43
2019-01-26T07:58:57.589Z,74.43
2019-01-26T07:59:57.568Z,74.53
2019-01-26T08:00:57.551Z,74.43
2019-01-26T08:01:57.532Z,73.96
2019-01-26T08:02:57.510Z,73.86
2019-01-26T08:03:57.492Z,73.77
2019-01-26T08:04:57.470Z,73.77
2019-01-26T08:05:57.454Z,74.53
2019-01-26T08:06:57.177Z,74.34
2019-01-26T08:07:57.406Z,73.39
2019-01-26T08:08:57.390Z,74.05
2019-01-26T08:09:57.121Z,74.81
2019-01-26T08:10:57.349Z,75.85
2019-01-26T08:11:57.332Z,75.85
2019-01-26T08:12:57.309Z,76.32
2019-01-26T08:13:57.291Z,75.95
2019-01-26T08:14:57.028Z,76.04
2019-01-26T08:15:57.254Z,76.32
2019-01-26T08:16:57.022Z,75.66
2019-01-26T08:17:57.213Z,75.85
2019-01-26T08:18:56.951Z,75.28
2019-01-26T08:19:57.173Z,76.23
2019-01-26T08:20:57.155Z,77.12
2019-01-26T08:21:57.135Z,77.26
2019-01-26T08:22:57.114Z,78.53
2019-01-26T08:23:57.097Z,79.19
2019-01-26T08:24:56.827Z,80.05
2019-01-26T08:25:57.057Z,79.29
2019-01-26T08:26:57.039Z,79.19
2019-01-26T08:27:57.016Z,79.1
2019-01-26T08:28:57.000Z,78.53
2019-01-26T08:29:56.981Z,78.91
2019-01-26T08:30:56.960Z,80.62
2019-01-26T08:31:56.939Z,82.12
2019-01-26T08:32:56.971Z,82.12
2019-01-26T08:33:56.897Z,82.88
2019-01-26T08:34:56.882Z,82.98
2019-01-26T08:35:56.871Z,83.92
2019-01-26T08:36:56.841Z,84.11
2019-01-26T08:37:56.825Z,83.17
2019-01-26T08:38:56.805Z,83.07
2019-01-26T08:39:56.540Z,83.64
2019-01-26T08:40:56.766Z,84.11
2019-01-26T08:41:56.749Z,84.86
2019-01-26T08:42:56.729Z,84.77
2019-01-26T08:43:56.460Z,84.39
2019-01-26T08:44:56.689Z,85.62
2019-01-26T08:45:56.669Z,86.47
2019-01-26T08:46:56.648Z,85.81
2019-01-26T08:47:56.633Z,85.05
2019-01-26T08:48:56.611Z,84.49
2019-01-26T08:49:56.590Z,84.68
2019-01-26T08:50:56.570Z,84.58
2019-01-26T08:51:56.554Z,85.81
2019-01-26T08:52:56.536Z,86.47
2019-01-26T08:53:56.517Z,86.29
2019-01-26T08:54:56.494Z,86.1
2019-01-26T08:55:56.474Z,87.23
2019-01-26T08:56:56.459Z,89.69
2019-01-26T08:57:56.436Z,90.91
2019-01-26T08:58:56.419Z,90.25
2019-01-26T08:59:56.402Z,90.73
2019-01-26T09:00:56.385Z,86.47
2019-01-26T09:01:56.364Z,79.86
2019-01-26T09:02:56.342Z,74
2019-01-26T09:03:56.325Z,69.84
2019-01-26T09:04:56.304Z,67
2019-01-26T09:05:56.288Z,63.42
2019-01-26T09:06:56.268Z,62.37
2019-01-26T09:07:56.004Z,62.75
2019-01-26T09:08:56.228Z,63.7
2019-01-26T09:09:56.208Z,63.6
2019-01-26T09:10:56.189Z,63.04
2019-01-26T09:11:56.172Z,64.07
2019-01-26T09:12:56.155Z,64.26
2019-01-26T09:13:56.136Z,68.23
2019-01-26T09:14:56.119Z,70.21
2019-01-26T09:15:56.097Z,71.73
2019-01-26T09:16:56.083Z,72.96
2019-01-26T09:17:56.063Z,73.43
2019-01-26T09:18:56.042Z,73.75
2019-01-26T09:19:56.023Z,74.88
2019-01-26T09:20:56.005Z,75.64
2019-01-26T09:21:55.989Z,81.32
2019-01-26T09:22:55.973Z,82.45
2019-01-26T09:23:55.993Z,83.87
2019-01-26T09:24:55.937Z,85.85
2019-01-26T09:25:55.913Z,85.76
2019-01-26T09:26:55.890Z,87.08
2019-01-26T09:27:55.872Z,87.93
2019-01-26T09:28:55.853Z,90.2
2019-01-26T09:29:55.836Z,90.3
2019-01-26T09:30:55.818Z,89.92
2019-01-26T09:31:55.800Z,89.45
2019-01-26T09:32:55.778Z,88.88
2019-01-26T09:33:55.760Z,89.73
2019-01-26T09:34:55.746Z,89.73
2019-01-26T09:35:55.724Z,90.01
2019-01-26T09:36:55.709Z,90.01
2019-01-26T09:37:55.690Z,88.79
2019-01-26T09:38:55.672Z,88.79
2019-01-26T09:39:55.650Z,89.54
2019-01-26T09:40:55.634Z,89.92
2019-01-26T09:41:55.366Z,89.64
2019-01-26T09:42:55.593Z,89.17
2019-01-26T09:43:55.575Z,88.31
2019-01-26T09:44:55.555Z,89.26
2019-01-26T09:45:55.540Z,91.91
2019-01-26T09:46:55.523Z,93.7
2019-01-26T09:47:55.503Z,94.18
2019-01-26T09:48:55.490Z,93.32
2019-01-26T09:49:55.469Z,93.42
2019-01-26T09:50:55.447Z,93.7
2019-01-26T09:51:55.178Z,92.85
2019-01-26T09:52:55.409Z,93.23
2019-01-26T09:53:55.392Z,94.46
2019-01-26T09:54:55.374Z,94.46
2019-01-26T09:55:55.358Z,95.12
2019-01-26T09:56:55.333Z,94.65
2019-01-26T09:57:55.315Z,93.8
2019-01-26T09:58:55.299Z,92.47
2019-01-26T09:59:55.277Z,91.15
2019-01-26T10:00:55.267Z,90.2
2019-01-26T10:01:55.248Z,89.83
2019-01-26T10:02:55.225Z,89.36
2019-01-26T10:03:55.257Z,90.11
2019-01-26T10:04:55.188Z,91.62
2019-01-26T10:05:55.170Z,92.57
2019-01-26T10:06:55.155Z,92.85
2019-01-26T10:07:55.130Z,92.19
2019-01-26T10:08:55.164Z,92.57
2019-01-26T10:09:55.097Z,92.76
2019-01-26T10:10:55.357Z,93.23
2019-01-26T10:11:55.060Z,93.32
2019-01-26T10:12:55.047Z,92.38
2019-01-26T10:13:55.072Z,91.91
2019-01-26T10:14:55.004Z,91.53
2019-01-26T10:15:54.984Z,92.76
2019-01-26T10:16:54.970Z,92
2019-01-26T10:17:54.960Z,91.24
2019-01-26T10:18:56.248Z,89.73
2019-01-26T10:19:54.665Z,89.26
2019-01-26T10:20:54.896Z,87.65
2019-01-26T10:21:54.875Z,86.99
2019-01-26T10:22:54.855Z,85.19
2019-01-26T10:23:55.162Z,86.42
2019-01-26T10:24:54.822Z,85.85
2019-01-26T10:25:54.800Z,85.76
2019-01-26T10:26:54.786Z,85.38
2019-01-26T10:27:54.775Z,84.91
2019-01-26T10:28:54.749Z,84.72
2019-01-26T10:29:54.729Z,87.46
2019-01-26T10:30:54.710Z,89.36
2019-01-26T10:31:54.445Z,91.81
2019-01-26T10:32:54.677Z,92.47
2019-01-26T10:33:54.657Z,92
2019-01-26T10:34:54.637Z,90.3
2019-01-26T10:35:54.621Z,89.26
2019-01-26T10:36:54.602Z,88.79
2019-01-26T10:37:54.584Z,88.88
2019-01-26T10:38:54.565Z,89.73
2019-01-26T10:39:54.544Z,91.48
2019-01-26T10:40:54.532Z,92.05
2019-01-26T10:41:54.265Z,92.9
2019-01-26T10:42:54.497Z,92.24
2019-01-26T10:43:54.475Z,90.82
2019-01-26T10:44:54.458Z,90.72
2019-01-26T10:45:54.441Z,91.86
2019-01-26T10:46:54.421Z,92.9
2019-01-26T10:47:54.402Z,95.17
2019-01-26T10:49:00.388Z,94.46
2019-01-26T10:49:54.364Z,92.9
2019-01-26T10:50:54.350Z,92.29
2019-01-26T10:51:54.336Z,91.01
2019-01-26T10:52:54.063Z,90.16
2019-01-26T10:53:54.299Z,90.72
2019-01-26T10:54:54.031Z,91.67
2019-01-26T10:55:54.261Z,90.34
2019-01-26T10:56:54.244Z,90.63
2019-01-26T10:57:54.225Z,91.2
2019-01-26T10:58:54.203Z,90.82
2019-01-26T10:59:54.186Z,90.82
2019-01-26T11:00:54.175Z,91.1
2019-01-26T11:01:54.151Z,91.86
2019-01-26T11:02:54.135Z,91.01
2019-01-26T11:03:54.116Z,90.91
2019-01-26T11:04:54.146Z,91.1
2019-01-26T11:05:54.076Z,91.01
2019-01-26T11:06:54.061Z,90.2
2019-01-26T11:07:54.042Z,89.12
2019-01-26T11:08:54.070Z,89.21
2019-01-26T11:09:54.006Z,88.83
2019-01-26T11:10:53.990Z,88.55
2019-01-26T11:11:53.969Z,89.12
2019-01-26T11:12:53.952Z,88.93
2019-01-26T11:13:53.934Z,89.59
2019-01-26T11:14:53.916Z,90.16
2019-01-26T11:15:53.898Z,90.06
2019-01-26T11:16:53.885Z,90.16
2019-01-26T11:17:53.864Z,90.34
2019-01-26T11:18:53.845Z,91.1
2019-01-26T11:19:53.825Z,91.77
2019-01-26T11:20:53.809Z,91.48
2019-01-26T11:21:53.789Z,91.01
2019-01-26T11:22:53.770Z,90.82
2019-01-26T11:23:53.754Z,90.53
2019-01-26T11:24:53.736Z,90.16
2019-01-26T11:25:53.718Z,89.69
2019-01-26T11:26:53.705Z,89.5
2019-01-26T11:27:53.683Z,89.78
2019-01-26T11:28:53.665Z,89.78
2019-01-26T11:29:53.644Z,89.78
2019-01-26T11:30:53.633Z,89.87
2019-01-26T11:31:53.609Z,89.31
2019-01-26T11:32:53.588Z,88.36
2019-01-26T11:33:53.574Z,88.07
2019-01-26T11:34:53.310Z,87.51
2019-01-26T11:35:53.541Z,86.37
2019-01-26T11:36:53.531Z,85.8
2019-01-26T11:37:53.499Z,85.8
2019-01-26T11:38:53.239Z,85.14
2019-01-26T11:39:53.466Z,84.2
2019-01-26T11:40:53.198Z,83.72
2019-01-26T11:41:53.430Z,83.44
2019-01-26T11:42:53.416Z,83.25
2019-01-26T11:43:53.148Z,83.06
2019-01-26T11:44:53.130Z,82.68
2019-01-26T11:45:53.406Z,82.31
2019-01-26T11:46:53.338Z,81.26
2019-01-26T11:47:53.322Z,81.26
2019-01-26T11:48:53.305Z,81.64
2019-01-26T11:49:53.287Z,82.4
2019-01-26T11:50:53.267Z,82.59
2019-01-26T11:51:53.251Z,84.86
2019-01-26T11:52:53.242Z,84.01
2019-01-26T11:53:53.217Z,84.2
2019-01-26T11:54:53.200Z,84.01
2019-01-26T11:55:53.178Z,83.72
2019-01-26T11:56:53.189Z,83.15
2019-01-26T11:57:53.148Z,83.15
2019-01-26T11:58:53.130Z,83.34
2019-01-26T11:59:53.110Z,83.82
2019-01-26T12:00:59.276Z,84.1
2019-01-26T12:01:53.070Z,83.25
2019-01-26T12:02:52.807Z,83.53
2019-01-26T12:03:53.040Z,83.06
2019-01-26T12:04:53.019Z,82.68
2019-01-26T12:05:52.999Z,83.44
2019-01-26T12:06:52.984Z,83.06
2019-01-26T12:07:52.717Z,82.4
2019-01-26T12:08:52.958Z,83.25
2019-01-26T12:09:52.928Z,83.15
2019-01-26T12:10:52.910Z,82.87
2019-01-26T12:11:52.896Z,82.78
2019-01-26T12:12:52.886Z,82.78
2019-01-26T12:13:52.857Z,82.68
2019-01-26T12:14:52.841Z,81.83
2019-01-26T12:15:52.822Z,81.64
2019-01-26T12:16:52.806Z,82.12
2019-01-26T12:17:52.787Z,82.31
2019-01-26T12:18:52.770Z,83.15
2019-01-26T12:19:52.751Z,83.91
2019-01-26T12:20:52.735Z,83.72
2019-01-26T12:21:52.770Z,83.53
2019-01-26T12:22:52.702Z,83.25
2019-01-26T12:23:52.682Z,82.87
2019-01-26T12:24:52.668Z,83.25
2019-01-26T12:25:52.651Z,83.25
2019-01-26T12:26:52.627Z,82.97
2019-01-26T12:27:52.610Z,82.31
2019-01-26T12:28:52.346Z,82.31
2019-01-26T12:29:52.575Z,81.74
2019-01-26T12:30:52.564Z,81.07
2019-01-26T12:31:52.544Z,81.36
2019-01-26T12:32:52.523Z,81.55
2019-01-26T12:33:52.506Z,80.69
2019-01-26T12:34:52.489Z,80.32
2019-01-26T12:35:52.471Z,79.75
2019-01-26T12:36:52.454Z,79.75
2019-01-26T12:37:52.437Z,80.32
2019-01-26T12:38:52.421Z,80.04
2019-01-26T12:39:52.154Z,80.79
2019-01-26T12:40:52.379Z,80.13
2019-01-26T12:41:52.361Z,79.47
2019-01-26T12:42:52.345Z,78.99
2019-01-26T12:43:52.079Z,79.37
2019-01-26T12:44:52.062Z,79.66
2019-01-26T12:45:52.043Z,79.47
2019-01-26T12:46:52.276Z,78.61
2019-01-26T12:47:52.258Z,77.67
2019-01-26T12:48:52.238Z,77.95
2019-01-26T12:49:52.223Z,77.67
2019-01-26T12:50:52.205Z,77.86
2019-01-26T12:51:52.186Z,78.33
2019-01-26T12:52:52.169Z,78.52
2019-01-26T12:53:52.152Z,77.67
2019-01-26T12:54:52.135Z,76.25
2019-01-26T12:55:52.116Z,75.68
2019-01-26T12:56:52.106Z,75.4